createdAt,value
2023-04-07T00:00:47.840Z,24.90
2023-04-07T00:03:16.490Z,27.30
2023-04-07T00:05:44.784Z,22.43
2023-04-07T00:08:12.909Z,22.17
2023-04-07T00:10:41.113Z,22.00
2023-04-07T00:13:10.701Z,21.77
2023-04-07T00:15:38.994Z,19.33
2023-04-07T00:18:07.300Z,17.47
2023-04-07T00:20:35.542Z,17.77
2023-04-07T00:23:03.736Z,17.83
2023-04-07T00:25:31.862Z,16.30
2023-04-07T00:27:59.965Z,22.80
2023-04-07T00:30:29.479Z,16.00
2023-04-07T00:32:57.853Z,13.57
2023-04-07T00:35:26.092Z,16.77
2023-04-07T00:37:54.278Z,15.93
2023-04-07T00:40:22.504Z,16.30
2023-04-07T00:42:50.744Z,17.60
2023-04-07T00:45:18.921Z,19.63
2023-04-07T00:47:48.526Z,19.87
2023-04-07T00:50:16.784Z,18.33
2023-04-07T00:52:45.018Z,17.87
2023-04-07T00:55:13.180Z,18.93
2023-04-07T00:57:41.676Z,17.60
2023-04-07T01:00:10.872Z,18.27
2023-04-07T01:02:43.240Z,20.10
2023-04-07T01:05:16.652Z,22.43
2023-04-07T01:07:49.564Z,21.17
2023-04-07T01:10:21.279Z,17.97
2023-04-07T01:12:52.340Z,20.60
2023-04-07T01:15:23.333Z,25.83
2023-04-07T01:17:56.621Z,30.73
2023-04-07T01:20:28.710Z,31.43
2023-04-07T01:22:57.839Z,30.83
2023-04-07T01:25:36.481Z,39.30
2023-04-07T01:28:15.826Z,29.03
2023-04-07T01:30:46.448Z,28.87
2023-04-07T01:33:16.294Z,28.70
2023-04-07T01:35:44.654Z,42.77
2023-04-07T01:38:13.704Z,39.60
2023-04-07T01:40:42.336Z,39.83
2023-04-07T01:43:10.970Z,38.90
2023-04-07T01:45:39.466Z,48.47
2023-04-07T01:48:10.317Z,47.83
2023-04-07T01:50:39.887Z,51.33
2023-04-07T01:53:08.702Z,43.63
2023-04-07T01:55:37.126Z,52.73
2023-04-07T01:58:08.151Z,50.80
2023-04-07T02:00:36.388Z,56.63
2023-04-07T02:03:07.699Z,57.87
2023-04-07T02:05:37.788Z,63.43
2023-04-07T02:08:07.269Z,67.77
2023-04-07T02:10:37.479Z,54.73
2023-04-07T02:13:06.873Z,56.97
2023-04-07T02:15:35.482Z,38.27
2023-04-07T02:18:04.075Z,39.27
2023-04-07T02:20:32.791Z,32.67
2023-04-07T02:23:02.350Z,30.70
2023-04-07T02:25:31.532Z,40.30
2023-04-07T02:28:00.406Z,47.13
2023-04-07T02:30:29.076Z,55.57
2023-04-07T02:32:57.288Z,46.33
2023-04-07T02:35:25.516Z,50.17
2023-04-07T02:37:53.830Z,76.90
2023-04-07T02:40:23.358Z,87.10
2023-04-07T02:42:51.529Z,70.03
2023-04-07T02:45:19.668Z,78.17
2023-04-07T02:47:47.879Z,81.60
2023-04-07T02:50:16.251Z,77.63
2023-04-07T02:52:44.374Z,87.23
2023-04-07T02:55:12.606Z,76.00
2023-04-07T02:57:42.152Z,73.60
2023-04-07T03:00:10.961Z,112.13
2023-04-07T03:02:39.191Z,85.57
2023-04-07T03:05:08.233Z,70.67
2023-04-07T03:07:36.420Z,75.13
2023-04-07T03:10:04.572Z,99.87
2023-04-07T03:12:32.774Z,96.83
2023-04-07T03:15:02.389Z,84.10
2023-04-07T03:17:31.451Z,71.53
2023-04-07T03:19:59.816Z,77.57
2023-04-07T03:22:27.944Z,67.93
2023-04-07T03:24:56.225Z,69.00
2023-04-07T03:27:24.346Z,83.23
2023-04-07T03:29:52.545Z,76.43
2023-04-07T03:32:22.172Z,74.67
2023-04-07T03:34:50.472Z,76.50
2023-04-07T03:37:18.688Z,83.47
2023-04-07T03:39:47.068Z,69.70
2023-04-07T03:42:15.491Z,74.63
2023-04-07T03:44:43.757Z,75.30
2023-04-07T03:47:12.000Z,55.90
2023-04-07T03:49:41.567Z,50.23
2023-04-07T03:52:09.893Z,47.30
2023-04-07T03:54:38.385Z,49.93
2023-04-07T03:57:06.613Z,41.23
2023-04-07T03:59:34.800Z,45.63
2023-04-07T04:02:03.150Z,51.10
2023-04-07T04:04:31.400Z,51.67
2023-04-07T04:07:01.446Z,44.40
2023-04-07T04:09:29.750Z,36.00
2023-04-07T04:11:57.907Z,26.03
2023-04-07T04:14:26.259Z,27.77
2023-04-07T04:16:55.265Z,13.80
2023-04-07T04:19:23.433Z,15.50
2023-04-07T04:21:51.799Z,17.00
2023-04-07T04:24:21.281Z,15.97
2023-04-07T04:26:49.478Z,13.93
2023-04-07T04:29:17.592Z,12.30
2023-04-07T04:31:45.852Z,9.43
2023-04-07T04:34:14.088Z,13.27
2023-04-07T04:36:42.507Z,14.50
2023-04-07T04:39:11.004Z,11.37
2023-04-07T04:41:40.655Z,10.47
2023-04-07T04:44:09.009Z,10.93
2023-04-07T04:46:37.438Z,9.77
2023-04-07T04:49:06.427Z,10.77
2023-04-07T04:51:34.627Z,13.13
2023-04-07T04:54:03.865Z,12.80
2023-04-07T04:56:32.005Z,12.93
2023-04-07T04:59:01.503Z,12.57
2023-04-07T05:01:31.410Z,13.50
2023-04-07T05:04:01.180Z,8.77
2023-04-07T05:06:29.546Z,9.00
2023-04-07T05:08:57.698Z,12.40
2023-04-07T05:11:25.931Z,15.03
2023-04-07T05:13:54.247Z,12.00
2023-04-07T05:16:23.937Z,12.03
2023-04-07T05:18:52.168Z,10.80
2023-04-07T05:21:21.937Z,15.17
2023-04-07T05:23:50.301Z,9.70
2023-04-07T05:26:18.603Z,8.20
2023-04-07T05:28:46.843Z,10.70
2023-04-07T05:31:15.331Z,10.57
2023-04-07T05:33:44.972Z,9.73
2023-04-07T05:36:13.219Z,13.13
2023-04-07T05:38:41.524Z,11.53
2023-04-07T05:41:09.713Z,8.73
2023-04-07T05:43:38.035Z,7.90
2023-04-07T05:46:06.482Z,6.70
2023-04-07T05:48:35.485Z,7.40
2023-04-07T05:51:05.270Z,7.47
2023-04-07T05:53:33.473Z,6.73
2023-04-07T05:56:01.658Z,6.37
2023-04-07T05:58:29.858Z,6.20
2023-04-07T06:00:58.085Z,4.87
2023-04-07T06:03:26.537Z,5.30
2023-04-07T06:05:54.825Z,5.77
2023-04-07T06:08:24.325Z,6.87
2023-04-07T06:10:52.457Z,4.43
2023-04-07T06:13:20.657Z,6.27
2023-04-07T06:15:48.903Z,5.83
2023-04-07T06:18:17.255Z,5.47
2023-04-07T06:20:45.482Z,7.97
2023-04-07T06:23:13.630Z,7.87
2023-04-07T06:25:43.141Z,8.10
2023-04-07T06:28:11.352Z,7.90
2023-04-07T06:30:41.044Z,6.53
2023-04-07T06:33:09.375Z,6.70
2023-04-07T06:35:37.560Z,3.80
2023-04-07T06:38:05.700Z,4.17
2023-04-07T06:40:33.902Z,3.90
2023-04-07T06:43:04.028Z,3.53
2023-04-07T06:45:32.218Z,3.10
2023-04-07T06:48:00.489Z,4.00
2023-04-07T06:50:28.819Z,2.70
2023-04-07T06:52:56.963Z,2.63
2023-04-07T06:55:25.158Z,2.50
2023-04-07T06:57:53.372Z,3.27
2023-04-07T07:00:24.218Z,2.50
2023-04-07T07:02:52.560Z,2.80
2023-04-07T07:05:20.820Z,3.23
2023-04-07T07:07:49.016Z,3.10
2023-04-07T07:10:17.394Z,3.00
2023-04-07T07:12:45.792Z,3.60
2023-04-07T07:15:14.038Z,3.17
2023-04-07T07:17:43.605Z,3.73
2023-04-07T07:20:12.395Z,3.07
2023-04-07T07:22:41.355Z,2.93
2023-04-07T07:25:09.908Z,2.10
2023-04-07T07:27:38.114Z,1.80
2023-04-07T07:30:07.117Z,1.90
2023-04-07T07:32:35.316Z,2.03
2023-04-07T07:35:04.956Z,2.40
2023-04-07T07:37:33.423Z,2.17
2023-04-07T07:40:01.563Z,2.47
2023-04-07T07:42:29.752Z,2.00
2023-04-07T07:44:57.912Z,2.60
2023-04-07T07:47:26.897Z,2.70
2023-04-07T07:49:55.192Z,2.87
2023-04-07T07:52:24.718Z,2.40
2023-04-07T07:54:53.243Z,2.40
2023-04-07T07:57:21.370Z,2.47
2023-04-07T07:59:49.561Z,2.00
2023-04-07T08:02:17.787Z,2.43
2023-04-07T08:04:46.352Z,2.00
2023-04-07T08:07:14.589Z,2.30
2023-04-07T08:09:44.166Z,2.37
2023-04-07T08:12:12.335Z,1.80
2023-04-07T08:14:40.508Z,1.70
2023-04-07T08:17:08.692Z,1.93
2023-04-07T08:19:36.904Z,1.87
2023-04-07T08:22:05.250Z,2.00
2023-04-07T08:24:33.407Z,2.07
2023-04-07T08:27:02.933Z,2.13
2023-04-07T08:29:31.313Z,1.80
2023-04-07T08:32:00.611Z,2.03
2023-04-07T08:34:28.903Z,2.20
2023-04-07T08:36:57.136Z,2.30
2023-04-07T08:39:26.623Z,2.13
2023-04-07T08:41:55.883Z,2.27
2023-04-07T08:44:27.275Z,2.00
2023-04-07T08:46:59.146Z,1.93
2023-04-07T08:49:29.781Z,2.30
2023-04-07T08:51:58.502Z,1.77
2023-04-07T08:54:27.187Z,1.80
2023-04-07T08:56:55.393Z,1.50
2023-04-07T08:59:28.489Z,2.10
2023-04-07T09:01:56.862Z,1.70
2023-04-07T09:04:25.538Z,2.07
2023-04-07T09:06:53.741Z,2.00
2023-04-07T09:09:22.191Z,2.00
2023-04-07T09:11:51.436Z,1.93
2023-04-07T09:14:20.992Z,2.07
2023-04-07T09:16:50.679Z,1.70
2023-04-07T09:19:18.924Z,2.00
2023-04-07T09:21:50.580Z,1.60
2023-04-07T09:24:26.790Z,2.17
2023-04-07T09:27:09.859Z,1.87
2023-04-07T09:29:38.057Z,1.60
2023-04-07T09:32:08.055Z,1.30
2023-04-07T09:34:39.042Z,2.17
2023-04-07T09:37:09.517Z,2.23
2023-04-07T09:39:50.388Z,2.30
2023-04-07T09:42:18.560Z,1.67
2023-04-07T09:44:46.773Z,1.90
2023-04-07T09:47:16.361Z,1.70
2023-04-07T09:49:52.416Z,2.10
2023-04-07T09:52:21.520Z,1.80
2023-04-07T09:54:50.961Z,1.77
2023-04-07T09:57:19.761Z,2.10
2023-04-07T09:59:48.749Z,1.43
2023-04-07T10:02:18.628Z,1.73
2023-04-07T10:04:46.984Z,1.90
2023-04-07T10:07:15.501Z,2.03
2023-04-07T10:09:43.867Z,2.10
2023-04-07T10:12:12.731Z,2.30
2023-04-07T10:14:46.791Z,2.10
2023-04-07T10:17:18.712Z,2.20
2023-04-07T10:19:48.729Z,3.33
2023-04-07T10:22:17.289Z,2.20
2023-04-07T10:24:49.190Z,1.73
2023-04-07T10:27:19.523Z,2.03
2023-04-07T10:29:49.148Z,1.80
2023-04-07T10:32:17.456Z,1.83
2023-04-07T10:34:59.658Z,3.80
2023-04-07T10:37:28.209Z,1.90
2023-04-07T10:40:14.924Z,2.10
2023-04-07T10:42:47.569Z,2.10
2023-04-07T10:45:16.154Z,1.40
2023-04-07T10:47:59.397Z,1.50
2023-04-07T10:50:29.514Z,1.63
2023-04-07T10:53:08.148Z,2.03
2023-04-07T10:55:37.614Z,2.50
2023-04-07T10:58:16.100Z,1.80
2023-04-07T11:00:44.574Z,2.07
2023-04-07T11:03:14.213Z,2.37
2023-04-07T11:05:44.479Z,1.77
2023-04-07T11:08:12.617Z,1.60
2023-04-07T11:10:40.851Z,1.53
2023-04-07T11:13:10.377Z,1.63
2023-04-07T11:15:40.595Z,1.77
2023-04-07T11:18:16.206Z,1.70
2023-04-07T11:20:46.830Z,1.47
2023-04-07T11:23:15.269Z,1.90
2023-04-07T11:25:44.998Z,2.77
2023-04-07T11:28:13.774Z,2.13
2023-04-07T11:30:46.954Z,1.63
2023-04-07T11:33:19.039Z,1.87
2023-04-07T11:35:53.043Z,2.43
2023-04-07T11:38:22.086Z,1.73
2023-04-07T11:40:50.292Z,1.70
2023-04-07T11:43:22.036Z,1.40
2023-04-07T11:46:05.798Z,2.40
2023-04-07T11:48:34.596Z,2.07
2023-04-07T11:51:04.396Z,1.87
2023-04-07T11:53:35.417Z,1.60
2023-04-07T11:56:05.150Z,2.10
2023-04-07T11:58:33.585Z,2.20
2023-04-07T12:01:05.091Z,2.13
2023-04-07T12:03:34.079Z,1.90
2023-04-07T12:06:04.044Z,1.57
2023-04-07T12:08:42.014Z,1.57
2023-04-07T12:11:10.506Z,1.50
2023-04-07T12:13:39.522Z,2.10
2023-04-07T12:16:07.819Z,1.47
2023-04-07T12:18:36.621Z,2.23
2023-04-07T12:21:06.628Z,1.97
2023-04-07T12:23:34.812Z,1.90
2023-04-07T12:26:03.221Z,2.03
2023-04-07T12:28:31.777Z,1.70
2023-04-07T12:31:00.164Z,1.60
2023-04-07T12:33:28.358Z,1.70
2023-04-07T12:35:56.565Z,1.63
2023-04-07T12:38:26.562Z,1.60
2023-04-07T12:40:54.786Z,1.87
2023-04-07T12:43:23.522Z,1.57
2023-04-07T12:45:51.802Z,1.60
2023-04-07T12:48:20.058Z,1.90
2023-04-07T12:50:48.241Z,1.80
2023-04-07T12:53:16.593Z,1.63
2023-04-07T12:55:47.317Z,1.50
2023-04-07T12:58:17.301Z,1.90
2023-04-07T13:00:46.854Z,1.70
2023-04-07T13:03:15.195Z,2.47
2023-04-07T13:05:43.459Z,1.90
2023-04-07T13:08:11.666Z,2.40
2023-04-07T13:10:39.948Z,1.87
2023-04-07T13:13:09.594Z,2.13
2023-04-07T13:15:37.893Z,2.37
2023-04-07T13:18:06.479Z,1.93
2023-04-07T13:20:34.905Z,2.17
2023-04-07T13:23:08.348Z,2.07
2023-04-07T13:25:38.525Z,2.37
2023-04-07T13:28:07.266Z,2.00
2023-04-07T13:30:36.818Z,1.90
2023-04-07T13:33:05.145Z,2.50
2023-04-07T13:35:35.986Z,2.40
2023-04-07T13:38:04.377Z,2.67
2023-04-07T13:40:32.564Z,2.87
2023-04-07T13:43:01.084Z,2.10
2023-04-07T13:45:29.266Z,2.10
2023-04-07T13:47:58.862Z,2.07
2023-04-07T13:50:27.121Z,2.23
2023-04-07T13:52:55.322Z,2.00
2023-04-07T13:55:23.563Z,1.80
2023-04-07T13:57:51.749Z,2.67
2023-04-07T14:00:20.640Z,2.43
2023-04-07T14:02:50.325Z,2.63
2023-04-07T14:05:19.898Z,2.87
2023-04-07T14:07:48.564Z,1.97
2023-04-07T14:10:16.772Z,2.33
2023-04-07T14:12:45.001Z,2.40
2023-04-07T14:15:13.331Z,2.37
2023-04-07T14:17:41.557Z,2.43
2023-04-07T14:20:10.073Z,2.53
2023-04-07T14:22:39.578Z,2.97
2023-04-07T14:25:08.263Z,2.63
2023-04-07T14:27:37.005Z,3.83
2023-04-07T14:30:05.414Z,2.33
2023-04-07T14:32:34.347Z,2.57
2023-04-07T14:35:02.687Z,2.60
2023-04-07T14:37:30.967Z,3.20
2023-04-07T14:40:02.893Z,2.27
2023-04-07T14:42:31.649Z,2.30
2023-04-07T14:45:01.691Z,2.30
2023-04-07T14:47:30.183Z,2.50
2023-04-07T14:49:58.381Z,3.03
2023-04-07T14:52:27.729Z,2.67
2023-04-07T14:54:58.418Z,2.57
2023-04-07T14:57:29.166Z,2.97
2023-04-07T14:59:57.382Z,2.80
2023-04-07T15:02:25.837Z,2.57
2023-04-07T15:04:54.249Z,3.03
2023-04-07T15:07:22.475Z,2.40
2023-04-07T15:09:50.772Z,2.80
2023-04-07T15:12:18.996Z,2.40
2023-04-07T15:14:48.565Z,2.90
2023-04-07T15:17:16.762Z,2.93
2023-04-07T15:19:45.146Z,2.70
2023-04-07T15:22:13.297Z,2.27
2023-04-07T15:24:41.429Z,2.43
2023-04-07T15:27:10.770Z,2.33
2023-04-07T15:29:38.954Z,2.33
2023-04-07T15:32:08.623Z,2.80
2023-04-07T15:34:36.769Z,3.07
2023-04-07T15:37:05.156Z,3.00
2023-04-07T15:39:33.281Z,3.60
2023-04-07T15:42:01.655Z,2.40
2023-04-07T15:44:30.957Z,3.60
2023-04-07T15:46:59.209Z,3.07
2023-04-07T15:49:28.780Z,2.90
2023-04-07T15:51:57.092Z,2.70
2023-04-07T15:54:25.285Z,2.93
2023-04-07T15:56:53.676Z,2.50
2023-04-07T15:59:21.812Z,2.60
2023-04-07T16:01:50.324Z,3.20
2023-04-07T16:04:19.277Z,3.27
2023-04-07T16:06:48.818Z,3.33
2023-04-07T16:09:17.000Z,3.00
2023-04-07T16:11:45.162Z,2.60
2023-04-07T16:14:13.326Z,2.97
2023-04-07T16:16:41.713Z,3.47
2023-04-07T16:19:10.106Z,2.60
2023-04-07T16:21:39.431Z,3.23
2023-04-07T16:24:08.985Z,2.07
2023-04-07T16:26:37.126Z,2.97
2023-04-07T16:29:05.684Z,3.00
2023-04-07T16:31:33.879Z,3.10
2023-04-07T16:34:02.151Z,2.97
2023-04-07T16:36:30.424Z,3.60
2023-04-07T16:38:58.575Z,4.53
2023-04-07T16:41:28.051Z,3.67
2023-04-07T16:43:56.185Z,3.60
2023-04-07T16:46:26.089Z,3.80
2023-04-07T16:48:54.593Z,3.50
2023-04-07T16:51:22.839Z,3.30
2023-04-07T16:53:51.139Z,3.97
2023-04-07T16:56:19.688Z,3.27
2023-04-07T16:58:49.395Z,3.40
2023-04-07T17:01:17.731Z,3.27
2023-04-07T17:03:46.743Z,3.33
2023-04-07T17:06:16.432Z,3.33
2023-04-07T17:08:44.727Z,2.87
2023-04-07T17:11:14.894Z,3.63
2023-04-07T17:13:43.153Z,3.93
2023-04-07T17:16:15.099Z,3.40
2023-04-07T17:18:43.390Z,4.27
2023-04-07T17:21:11.621Z,3.23
2023-04-07T17:23:39.856Z,3.23
2023-04-07T17:26:08.133Z,3.87
2023-04-07T17:28:36.359Z,3.70
2023-04-07T17:31:04.527Z,4.30
2023-04-07T17:33:35.031Z,3.90
2023-04-07T17:36:03.741Z,4.27
2023-04-07T17:38:32.115Z,4.27
2023-04-07T17:41:01.634Z,3.97
2023-04-07T17:43:29.887Z,3.57
2023-04-07T17:45:58.499Z,4.50
2023-04-07T17:48:26.740Z,3.70
2023-04-07T17:50:56.254Z,3.33
2023-04-07T17:53:24.574Z,3.70
2023-04-07T17:55:52.944Z,3.97
2023-04-07T17:58:21.140Z,4.27
2023-04-07T18:00:50.417Z,4.03
2023-04-07T18:03:19.332Z,3.53
2023-04-07T18:05:49.074Z,4.53
2023-04-07T18:08:18.611Z,4.20
2023-04-07T18:10:46.764Z,4.13
2023-04-07T18:13:15.283Z,4.60
2023-04-07T18:15:43.504Z,4.00
2023-04-07T18:18:11.705Z,4.77
2023-04-07T18:20:39.900Z,4.70
2023-04-07T18:23:09.496Z,4.97
2023-04-07T18:25:39.072Z,4.97
2023-04-07T18:28:07.234Z,5.13
2023-04-07T18:30:35.529Z,4.97
2023-04-07T18:33:03.803Z,4.57
2023-04-07T18:35:32.155Z,5.47
2023-04-07T18:38:00.801Z,5.77
2023-04-07T18:40:32.593Z,6.37
2023-04-07T18:43:02.505Z,5.97
2023-04-07T18:45:31.563Z,5.70
2023-04-07T18:47:59.859Z,5.13
2023-04-07T18:50:28.479Z,5.13
2023-04-07T18:52:56.738Z,5.87
2023-04-07T18:55:24.876Z,5.27
2023-04-07T18:57:53.230Z,5.77
2023-04-07T19:00:22.850Z,5.63
2023-04-07T19:02:51.464Z,4.73
2023-04-07T19:05:23.067Z,4.97
2023-04-07T19:07:53.328Z,4.93
2023-04-07T19:10:21.702Z,5.10
2023-04-07T19:12:49.901Z,5.70
2023-04-07T19:15:18.086Z,6.00
2023-04-07T19:17:47.696Z,5.43
2023-04-07T19:20:15.910Z,6.33
2023-04-07T19:22:44.100Z,5.07
2023-04-07T19:25:12.262Z,6.73
2023-04-07T19:27:40.886Z,6.67
2023-04-07T19:30:09.871Z,6.10
2023-04-07T19:32:38.131Z,5.80
2023-04-07T19:35:08.399Z,6.97
2023-04-07T19:37:37.806Z,6.83
2023-04-07T19:40:06.760Z,7.00
2023-04-07T19:42:35.328Z,6.77
2023-04-07T19:45:07.163Z,7.13
2023-04-07T19:47:35.855Z,6.73
2023-04-07T19:50:04.203Z,5.97
2023-04-07T19:52:33.858Z,5.97
2023-04-07T19:55:02.246Z,6.23
2023-04-07T19:57:31.218Z,6.57
2023-04-07T19:59:59.577Z,6.87
2023-04-07T20:02:28.121Z,7.63
2023-04-07T20:04:56.453Z,6.30
2023-04-07T20:07:24.625Z,6.50
2023-04-07T20:09:54.979Z,6.17
2023-04-07T20:12:23.201Z,6.83
2023-04-07T20:14:51.665Z,7.80
2023-04-07T20:17:19.885Z,7.63
2023-04-07T20:19:48.409Z,7.27
2023-04-07T20:22:16.637Z,7.53
2023-04-07T20:24:44.887Z,7.23
2023-04-07T20:27:14.414Z,7.20
2023-04-07T20:29:42.610Z,7.53
2023-04-07T20:32:10.851Z,6.77
2023-04-07T20:34:38.997Z,7.33
2023-04-07T20:37:07.142Z,7.27
2023-04-07T20:39:35.312Z,6.20
2023-04-07T20:42:03.472Z,8.03
2023-04-07T20:44:33.017Z,7.77
2023-04-07T20:47:01.167Z,7.47
2023-04-07T20:49:29.337Z,7.47
2023-04-07T20:51:57.970Z,7.47
2023-04-07T20:54:26.569Z,7.60
2023-04-07T20:56:55.040Z,9.17
2023-04-07T20:59:23.307Z,8.17
2023-04-07T21:01:52.852Z,6.30
2023-04-07T21:04:21.459Z,8.37
2023-04-07T21:06:49.726Z,7.40
2023-04-07T21:09:17.971Z,7.97
2023-04-07T21:11:46.163Z,8.40
2023-04-07T21:14:14.326Z,7.73
2023-04-07T21:16:43.370Z,7.27
2023-04-07T21:19:12.912Z,7.07
2023-04-07T21:21:41.126Z,7.63
2023-04-07T21:24:09.292Z,7.17
2023-04-07T21:26:37.517Z,7.83
2023-04-07T21:29:06.033Z,8.33
2023-04-07T21:31:34.374Z,8.73
2023-04-07T21:34:02.844Z,8.27
2023-04-07T21:36:32.774Z,8.03
2023-04-07T21:39:01.206Z,7.87
2023-04-07T21:41:29.366Z,7.70
2023-04-07T21:43:57.535Z,7.80
2023-04-07T21:46:26.407Z,7.50
2023-04-07T21:48:54.802Z,8.07
2023-04-07T21:51:22.947Z,8.90
2023-04-07T21:53:52.746Z,8.07
2023-04-07T21:56:21.854Z,9.03
2023-04-07T21:58:50.211Z,9.40
2023-04-07T22:01:19.314Z,8.37
2023-04-07T22:03:47.516Z,8.17
2023-04-07T22:06:15.709Z,9.00
2023-04-07T22:08:48.876Z,9.27
2023-04-07T22:11:28.735Z,9.63
2023-04-07T22:13:56.996Z,8.77
2023-04-07T22:16:25.259Z,8.77
2023-04-07T22:18:53.414Z,8.53
2023-04-07T22:21:21.698Z,7.83
2023-04-07T22:23:50.718Z,7.93
2023-04-07T22:26:18.948Z,8.80
2023-04-07T22:28:48.722Z,9.27
2023-04-07T22:31:17.237Z,8.83
2023-04-07T22:33:45.397Z,8.37
2023-04-07T22:36:13.544Z,9.67
2023-04-07T22:38:41.858Z,9.83
2023-04-07T22:41:09.998Z,9.87
2023-04-07T22:43:38.129Z,10.20
2023-04-07T22:46:07.720Z,10.23
2023-04-07T22:48:37.245Z,9.97
2023-04-07T22:51:05.610Z,10.07
2023-04-07T22:53:33.790Z,11.07
2023-04-07T22:56:02.505Z,10.03
2023-04-07T22:58:30.925Z,11.27
2023-04-07T23:00:59.138Z,11.80
2023-04-07T23:03:28.765Z,11.80
2023-04-07T23:05:57.168Z,12.20
2023-04-07T23:08:25.324Z,11.60
2023-04-07T23:10:53.487Z,12.73
2023-04-07T23:13:21.702Z,13.30
2023-04-07T23:15:49.879Z,11.80
2023-04-07T23:18:18.129Z,13.17
2023-04-07T23:20:52.788Z,13.73
2023-04-07T23:23:21.109Z,13.13
2023-04-07T23:25:49.281Z,13.07
2023-04-07T23:28:17.497Z,13.67
2023-04-07T23:30:45.609Z,14.00
2023-04-07T23:33:14.010Z,15.27
2023-04-07T23:35:42.347Z,14.80
2023-04-07T23:38:12.172Z,14.67
2023-04-07T23:40:40.363Z,15.87
2023-04-07T23:43:08.576Z,15.93
2023-04-07T23:45:37.082Z,16.27
2023-04-07T23:48:05.408Z,17.20
2023-04-07T23:50:33.536Z,17.20
2023-04-07T23:53:01.674Z,17.40
2023-04-07T23:55:31.252Z,17.50
2023-04-07T23:57:59.456Z,15.97
